Time;durP1;ratioP1;P1;durP2;ratioP2;P2;SDS_P1;SDS_P2;PMS_P1;PMS_P2;Temp;Humidity;BMP_temperature;BMP_pressure;BME280_temperature;BME280_humidity;BME280_pressure;Samples;Min_cycle;Max_cycle;Signal;HPM_P1;HPM_P2
2023/12/04 00:01:18;;;;;;;;;;;;;;;9.77;100.00;99947.41;7321184;19;19930;-66
2023/12/04 00:03:45;;;;;;;;;;;;;;;9.74;100.00;99942.50;7314795;19;20262;-68
2023/12/04 00:06:14;;;;;;;;;;;;;;;9.70;100.00;99943.03;7315578;19;19922;-66
2023/12/04 00:08:46;;;;;;;;;;;;;;;9.68;100.00;99937.09;7311209;19;19929;-66
2023/12/04 00:11:13;;;;;;;;;;;;;;;9.65;100.00;99938.25;7305730;19;21116;-68
2023/12/04 00:13:41;;;;;;;;;;;;;;;9.64;100.00;99927.94;7316757;19;19933;-68
2023/12/04 00:16:08;;;;;;;;;;;;;;;9.63;100.00;99929.75;7312853;19;20679;-67
2023/12/04 00:18:36;;;;;;;;;;;;;;;9.58;100.00;99912.84;7315273;19;20336;-68
2023/12/04 00:21:07;;;;;;;;;;;;;;;9.59;100.00;99914.50;7326571;19;20662;-66
2023/12/04 00:23:35;;;;;;;;;;;;;;;9.57;100.00;99911.19;7313790;19;19926;-67
2023/12/04 00:26:03;;;;;;;;;;;;;;;9.58;100.00;99902.34;7324363;19;19919;-67
2023/12/04 00:28:30;;;;;;;;;;;;;;;9.55;100.00;99898.22;7313874;19;19970;-67
2023/12/04 00:30:57;;;;;;;;;;;;;;;9.56;100.00;99896.44;7311176;19;19938;-68
2023/12/04 00:33:25;;;;;;;;;;;;;;;9.57;100.00;99882.31;7314466;19;20032;-66
2023/12/04 00:35:53;;;;;;;;;;;;;;;9.55;100.00;99879.84;7308702;19;19964;-67
2023/12/04 00:38:28;;;;;;;;;;;;;;;9.53;100.00;99875.78;7318305;19;20665;-68
2023/12/04 00:41:01;;;;;;;;;;;;;;;9.54;100.00;99874.78;7309485;19;20307;-66
2023/12/04 00:43:29;;;;;;;;;;;;;;;9.51;100.00;99864.59;7311313;19;20365;-67
2023/12/04 00:45:57;;;;;;;;;;;;;;;9.48;100.00;99851.84;7314257;19;19919;-67
2023/12/04 00:48:24;;;;;;;;;;;;;;;9.49;100.00;99850.84;7312197;19;19963;-67
2023/12/04 00:50:51;;;;;;;;;;;;;;;9.49;100.00;99840.34;7317131;19;21580;-67
2023/12/04 00:53:19;;;;;;;;;;;;;;;9.55;100.00;99837.03;7318587;19;19923;-66
2023/12/04 00:55:46;;;;;;;;;;;;;;;9.60;100.00;99839.97;7314540;19;19964;-66
2023/12/04 00:58:14;;;;;;;;;;;;;;;9.52;100.00;99829.50;7317998;19;19947;-66
2023/12/04 01:00:42;;;;;;;;;;;;;;;9.45;100.00;99832.78;7316565;19;19923;-66
2023/12/04 01:03:16;;;;;;;;;;;;;;;9.31;100.00;99828.25;7304974;19;19930;-66
2023/12/04 01:05:49;;;;;;;;;;;;;;;9.31;100.00;99824.81;7303444;19;19921;-66
2023/12/04 01:08:18;;;;;;;;;;;;;;;9.28;100.00;99812.88;7290421;19;19919;-66
2023/12/04 01:10:48;;;;;;;;;;;;;;;9.26;100.00;99809.56;7318579;19;19938;-67
2023/12/04 01:13:17;;;;;;;;;;;;;;;9.22;100.00;99808.28;7308783;19;19922;-66
2023/12/04 01:15:48;;;;;;;;;;;;;;;9.20;100.00;99799.75;7299156;19;19941;-66
2023/12/04 01:18:17;;;;;;;;;;;;;;;9.16;100.00;99792.38;7313842;19;19938;-65
2023/12/04 01:20:47;;;;;;;;;;;;;;;9.17;100.00;99783.53;7329432;19;19933;-67
2023/12/04 01:23:18;;;;;;;;;;;;;;;9.13;100.00;99774.38;7322161;19;19921;-66
2023/12/04 01:25:46;;;;;;;;;;;;;;;9.09;100.00;99768.66;7324804;19;20343;-67
2023/12/04 01:28:14;;;;;;;;;;;;;;;9.08;100.00;99760.94;7319811;19;19986;-67
2023/12/04 01:30:41;;;;;;;;;;;;;;;9.07;100.00;99757.50;7327698;19;19961;-66
2023/12/04 01:33:09;;;;;;;;;;;;;;;9.11;100.00;99747.47;7313449;19;19915;-68
2023/12/04 01:35:40;;;;;;;;;;;;;;;9.03;100.00;99745.72;7330327;19;20759;-66
2023/12/04 01:38:08;;;;;;;;;;;;;;;9.00;100.00;99741.59;7322580;19;19929;-66
2023/12/04 01:40:35;;;;;;;;;;;;;;;8.97;100.00;99736.72;7314880;19;20344;-67
2023/12/04 01:43:06;;;;;;;;;;;;;;;9.02;100.00;99736.19;7323305;19;19926;-67
2023/12/04 01:45:35;;;;;;;;;;;;;;;8.99;100.00;99728.66;7324917;19;19918;-67
2023/12/04 01:48:03;;;;;;;;;;;;;;;8.96;100.00;99727.19;7300856;19;19919;-67
2023/12/04 01:50:30;;;;;;;;;;;;;;;8.99;100.00;99713.72;7314399;19;19941;-68
2023/12/04 01:52:58;;;;;;;;;;;;;;;8.96;100.00;99716.72;7315871;19;20013;-66
2023/12/04 01:55:26;;;;;;;;;;;;;;;8.93;100.00;99713.63;7313345;19;20466;-68
2023/12/04 01:57:55;;;;;;;;;;;;;;;8.92;100.00;99709.34;7326270;19;19925;-66
2023/12/04 02:00:23;;;;;;;;;;;;;;;8.90;100.00;99708.69;7323918;19;19926;-66
2023/12/04 02:02:51;;;;;;;;;;;;;;;8.81;100.00;99702.66;7323785;19;20462;-67
2023/12/04 02:05:22;;;;;;;;;;;;;;;8.81;100.00;99693.97;7316296;19;20350;-66
2023/12/04 02:07:53;;;;;;;;;;;;;;;8.79;100.00;99686.28;7310042;19;20392;-66
2023/12/04 02:10:20;;;;;;;;;;;;;;;8.81;100.00;99683.50;7312485;19;20003;-67
2023/12/04 02:12:50;;;;;;;;;;;;;;;8.79;100.00;99696.75;7317948;19;20755;-66
2023/12/04 02:15:21;;;;;;;;;;;;;;;8.79;100.00;99693.31;7315851;19;20307;-66
2023/12/04 02:17:54;;;;;;;;;;;;;;;8.74;100.00;99680.72;7319846;19;19915;-66
2023/12/04 02:20:30;;;;;;;;;;;;;;;8.75;100.00;99677.13;7317810;19;20621;-65
2023/12/04 02:22:57;;;;;;;;;;;;;;;8.71;100.00;99669.75;7320296;19;19923;-65
2023/12/04 02:25:28;;;;;;;;;;;;;;;8.67;100.00;99671.91;7315771;19;20250;-66
2023/12/04 02:28:08;;;;;;;;;;;;;;;8.66;100.00;99662.41;7325823;19;19994;-66
2023/12/04 02:30:37;;;;;;;;;;;;;;;8.60;100.00;99655.22;7317735;19;20596;-66
2023/12/04 02:33:08;;;;;;;;;;;;;;;8.58;100.00;99658.00;7319066;19;20374;-68
2023/12/04 02:35:37;;;;;;;;;;;;;;;8.63;100.00;99648.81;7319154;19;20169;-66
2023/12/04 02:38:05;;;;;;;;;;;;;;;8.61;100.00;99646.38;7306849;19;19922;-69
2023/12/04 02:40:32;;;;;;;;;;;;;;;8.62;100.00;99634.06;7313523;19;20012;-69
2023/12/04 02:43:00;;;;;;;;;;;;;;;8.55;100.00;99629.50;7326865;19;20227;-66
2023/12/04 02:45:28;;;;;;;;;;;;;;;8.52;100.00;99622.00;7316504;19;19929;-66
2023/12/04 02:47:57;;;;;;;;;;;;;;;8.51;100.00;99625.59;7329549;19;19926;-66
2023/12/04 02:50:24;;;;;;;;;;;;;;;8.50;100.00;99621.34;7318011;19;19925;-66
2023/12/04 02:52:52;;;;;;;;;;;;;;;8.51;100.00;99616.91;7308204;19;20662;-65
2023/12/04 02:55:22;;;;;;;;;;;;;;;8.56;100.00;99614.59;7316139;19;19944;-65
2023/12/04 02:57:49;;;;;;;;;;;;;;;8.49;100.00;99608.38;7313165;19;20554;-65
2023/12/04 03:00:19;;;;;;;;;;;;;;;8.52;100.00;99598.41;7314878;19;19923;-66
2023/12/04 03:02:47;;;;;;;;;;;;;;;8.51;100.00;99596.75;7324512;19;19915;-65
2023/12/04 03:05:15;;;;;;;;;;;;;;;8.54;100.00;99587.72;7309867;19;19931;-66
2023/12/04 03:07:45;;;;;;;;;;;;;;;8.46;100.00;99579.91;7315932;19;19943;-66
2023/12/04 03:10:13;;;;;;;;;;;;;;;8.44;100.00;99574.00;7311605;19;19950;-66
2023/12/04 03:12:40;;;;;;;;;;;;;;;8.41;100.00;99569.13;7313558;19;19922;-65
2023/12/04 03:15:08;;;;;;;;;;;;;;;8.45;100.00;99565.16;7307821;19;19960;-66
2023/12/04 03:17:35;;;;;;;;;;;;;;;8.43;100.00;99564.53;7316787;19;20272;-66
2023/12/04 03:20:03;;;;;;;;;;;;;;;8.40;100.00;99555.19;7317088;19;19926;-66
2023/12/04 03:22:31;;;;;;;;;;;;;;;8.37;100.00;99544.25;7311224;19;20445;-66
2023/12/04 03:24:58;;;;;;;;;;;;;;;8.40;100.00;99539.47;7324494;19;19930;-65
2023/12/04 03:27:25;;;;;;;;;;;;;;;8.40;100.00;99538.66;7327453;19;20296;-67
2023/12/04 03:29:54;;;;;;;;;;;;;;;8.44;100.00;99527.66;7315446;19;20680;-67
2023/12/04 03:32:22;;;;;;;;;;;;;;;8.44;100.00;99527.66;7310846;19;19930;-66
2023/12/04 03:34:49;;;;;;;;;;;;;;;8.41;100.00;99519.31;7317039;19;19979;-66
2023/12/04 03:37:17;;;;;;;;;;;;;;;8.44;100.00;99516.34;7327631;19;20211;-66
2023/12/04 03:39:44;;;;;;;;;;;;;;;8.45;100.00;99515.38;7320398;19;19929;-65
2023/12/04 03:42:12;;;;;;;;;;;;;;;8.43;100.00;99515.53;7318570;19;20283;-66
2023/12/04 03:44:39;;;;;;;;;;;;;;;8.46;100.00;99499.47;7323465;19;20261;-67
2023/12/04 03:47:07;;;;;;;;;;;;;;;8.47;100.00;99505.53;7315907;19;20042;-66
2023/12/04 03:49:34;;;;;;;;;;;;;;;8.50;100.00;99498.13;7319397;19;20140;-67
2023/12/04 03:52:02;;;;;;;;;;;;;;;8.52;100.00;99488.31;7306935;19;19919;-66
2023/12/04 03:54:29;;;;;;;;;;;;;;;8.48;100.00;99496.69;7323328;19;19915;-68
2023/12/04 03:56:57;;;;;;;;;;;;;;;8.46;100.00;99486.38;7318695;19;20407;-65
2023/12/04 03:59:24;;;;;;;;;;;;;;;8.45;100.00;99468.19;7318171;19;19915;-67
2023/12/04 04:01:51;;;;;;;;;;;;;;;8.45;100.00;99471.63;7318579;19;19922;-67
2023/12/04 04:04:18;;;;;;;;;;;;;;;8.46;100.00;99469.81;7309822;19;19922;-67
2023/12/04 04:06:49;;;;;;;;;;;;;;;8.50;100.00;99473.72;7316241;19;19927;-67
2023/12/04 04:09:16;;;;;;;;;;;;;;;8.47;100.00;99464.41;7318637;19;20646;-65
2023/12/04 04:11:44;;;;;;;;;;;;;;;8.51;100.00;99465.69;7310693;19;20409;-67
2023/12/04 04:14:14;;;;;;;;;;;;;;;8.53;100.00;99468.16;7303403;19;19923;-66
2023/12/04 04:16:45;;;;;;;;;;;;;;;8.60;100.00;99466.47;7312698;19;20344;-68
2023/12/04 04:19:12;;;;;;;;;;;;;;;8.57;100.00;99459.78;7317453;19;19923;-66
2023/12/04 04:21:42;;;;;;;;;;;;;;;8.57;100.00;99458.94;7319702;19;19994;-66
2023/12/04 04:24:11;;;;;;;;;;;;;;;8.58;100.00;99461.38;7306194;19;19990;-66
2023/12/04 04:26:38;;;;;;;;;;;;;;;8.58;100.00;99450.91;7315972;19;20288;-65
2023/12/04 04:29:06;;;;;;;;;;;;;;;8.62;100.00;99455.81;7323626;19;19923;-66
2023/12/04 04:31:33;;;;;;;;;;;;;;;8.59;100.00;99449.09;7313569;19;19926;-66
2023/12/04 04:34:01;;;;;;;;;;;;;;;8.67;100.00;99456.09;7310838;19;19926;-67
2023/12/04 04:36:31;;;;;;;;;;;;;;;8.66;100.00;99449.22;7303082;19;20445;-66
2023/12/04 04:38:59;;;;;;;;;;;;;;;8.69;100.00;99449.69;7313112;19;20346;-66
2023/12/04 04:41:26;;;;;;;;;;;;;;;8.68;100.00;99437.59;7310021;19;19986;-65
2023/12/04 04:43:56;;;;;;;;;;;;;;;8.68;100.00;99442.81;7316883;19;20345;-65
2023/12/04 04:46:28;;;;;;;;;;;;;;;8.65;100.00;99434.47;7314675;19;19927;-67
2023/12/04 04:48:56;;;;;;;;;;;;;;;8.71;100.00;99431.97;7318537;19;20490;-67
2023/12/04 04:51:24;;;;;;;;;;;;;;;8.67;100.00;99428.06;7311391;19;19929;-66
2023/12/04 04:53:51;;;;;;;;;;;;;;;8.58;100.00;99422.06;7324224;19;20041;-67
2023/12/04 04:56:19;;;;;;;;;;;;;;;8.65;100.00;99419.56;7326976;19;19922;-66
2023/12/04 04:58:46;;;;;;;;;;;;;;;8.58;100.00;99418.66;7320565;19;19990;-66
2023/12/04 05:01:19;;;;;;;;;;;;;;;8.58;100.00;99414.19;7318338;19;20001;-67
2023/12/04 05:03:46;;;;;;;;;;;;;;;8.64;100.00;99414.47;7310095;19;19948;-67
2023/12/04 05:06:14;;;;;;;;;;;;;;;8.62;100.00;99409.44;7313362;19;19926;-66
2023/12/04 05:08:41;;;;;;;;;;;;;;;8.65;100.00;99403.00;7317584;19;19914;-66
2023/12/04 05:11:09;;;;;;;;;;;;;;;8.65;100.00;99403.00;7329573;19;19942;-68
2023/12/04 05:13:37;;;;;;;;;;;;;;;8.65;100.00;99385.47;7329511;19;20485;-67
2023/12/04 05:16:05;;;;;;;;;;;;;;;8.58;100.00;99395.84;7320866;19;20411;-65
2023/12/04 05:18:35;;;;;;;;;;;;;;;8.63;100.00;99384.84;7323018;19;19927;-66
2023/12/04 05:21:03;;;;;;;;;;;;;;;8.67;100.00;99390.56;7323660;19;19928;-66
2023/12/04 05:23:30;;;;;;;;;;;;;;;8.67;100.00;99387.94;7322726;19;20252;-66
2023/12/04 05:25:58;;;;;;;;;;;;;;;8.63;100.00;99386.66;7313670;19;19911;-66
2023/12/04 05:28:26;;;;;;;;;;;;;;;8.67;100.00;99390.56;7321963;19;20732;-67
2023/12/04 05:30:53;;;;;;;;;;;;;;;8.66;100.00;99387.13;7308474;19;19919;-65
2023/12/04 05:33:23;;;;;;;;;;;;;;;8.69;100.00;99373.63;7295859;19;19919;-67
2023/12/04 05:35:52;;;;;;;;;;;;;;;8.60;100.00;99369.47;7296064;19;19923;-67
2023/12/04 05:38:19;;;;;;;;;;;;;;;8.61;100.00;99371.09;7321806;19;19934;-66
2023/12/04 05:40:47;;;;;;;;;;;;;;;8.55;100.00;99366.56;7313793;19;19953;-66
2023/12/04 05:43:14;;;;;;;;;;;;;;;8.60;100.00;99372.09;7317701;19;19918;-66
2023/12/04 05:45:43;;;;;;;;;;;;;;;8.58;100.00;99366.22;7329473;19;20954;-67
2023/12/04 05:48:10;;;;;;;;;;;;;;;8.59;100.00;99358.16;7325847;19;19933;-67
2023/12/04 05:50:39;;;;;;;;;;;;;;;8.63;100.00;99356.03;7319865;19;19922;-65
2023/12/04 05:53:07;;;;;;;;;;;;;;;8.56;100.00;99352.47;7313743;19;20406;-66
2023/12/04 05:55:35;;;;;;;;;;;;;;;8.58;100.00;99353.91;7321758;19;19923;-67
2023/12/04 05:58:03;;;;;;;;;;;;;;;8.60;100.00;99348.50;7319480;19;19919;-67
2023/12/04 06:00:33;;;;;;;;;;;;;;;8.67;100.00;99343.38;7315148;19;19919;-66
2023/12/04 06:03:01;;;;;;;;;;;;;;;8.70;100.00;99343.81;7323056;19;20262;-67
2023/12/04 06:05:33;;;;;;;;;;;;;;;8.68;100.00;99332.72;7314528;19;19933;-65
2023/12/04 06:08:03;;;;;;;;;;;;;;;8.70;100.00;99338.56;7310180;19;19929;-66
2023/12/04 06:10:30;;;;;;;;;;;;;;;8.70;100.00;99322.03;7316989;19;19923;-67
2023/12/04 06:12:58;;;;;;;;;;;;;;;8.71;100.00;99321.84;7315112;19;19926;-66
2023/12/04 06:15:25;;;;;;;;;;;;;;;8.68;100.00;99322.22;7311126;19;20226;-66
2023/12/04 06:17:52;;;;;;;;;;;;;;;8.73;100.00;99321.69;7313423;19;19915;-67
2023/12/04 06:20:23;;;;;;;;;;;;;;;8.71;100.00;99316.59;7314703;19;20006;-67
2023/12/04 06:22:51;;;;;;;;;;;;;;;8.70;100.00;99309.72;7315689;19;20032;-67
2023/12/04 06:25:19;;;;;;;;;;;;;;;8.69;100.00;99309.91;7306546;19;20316;-67
2023/12/04 06:27:47;;;;;;;;;;;;;;;8.67;100.00;99306.66;7315261;19;19946;-66
2023/12/04 06:30:18;;;;;;;;;;;;;;;8.69;100.00;99309.91;7319185;19;20231;-67
2023/12/04 06:32:46;;;;;;;;;;;;;;;8.71;100.00;99306.13;7321712;19;19933;-66
2023/12/04 06:35:15;;;;;;;;;;;;;;;8.73;100.00;99303.31;7330635;19;20771;-66
2023/12/04 06:37:47;;;;;;;;;;;;;;;8.71;100.00;99300.88;7323613;19;20259;-67
2023/12/04 06:40:14;;;;;;;;;;;;;;;8.74;100.00;99304.94;7309896;19;20321;-65
2023/12/04 06:42:44;;;;;;;;;;;;;;;8.72;100.00;99301.69;7320563;19;20155;-67
2023/12/04 06:45:11;;;;;;;;;;;;;;;8.71;100.00;99303.50;7317435;19;20576;-67
2023/12/04 06:47:40;;;;;;;;;;;;;;;8.75;100.00;99299.53;7322854;19;20245;-65
2023/12/04 06:50:12;;;;;;;;;;;;;;;8.75;100.00;99296.91;7316784;19;20333;-65
2023/12/04 06:52:39;;;;;;;;;;;;;;;8.70;100.00;99295.81;7315839;19;19922;-66
2023/12/04 06:55:08;;;;;;;;;;;;;;;8.70;100.00;99293.19;7309626;19;21033;-66
2023/12/04 06:57:39;;;;;;;;;;;;;;;8.73;100.00;99292.84;7320287;19;19931;-67
2023/12/04 07:00:08;;;;;;;;;;;;;;;8.76;100.00;99295.09;7328286;19;19923;-67
2023/12/04 07:02:51;;;;;;;;;;;;;;;8.76;100.00;99285.41;7315913;19;20330;-67
2023/12/04 07:05:19;;;;;;;;;;;;;;;8.80;100.00;99285.88;7318726;19;20170;-67
2023/12/04 07:11:00;;;;;;;;;;;;;;;8.78;100.00;99280.81;7314698;19;20265;-65
2023/12/04 07:13:27;;;;;;;;;;;;;;;8.81;100.00;99280.44;7304503;19;20024;-66
2023/12/04 07:15:59;;;;;;;;;;;;;;;8.83;100.00;99280.28;7311217;19;20177;-66
2023/12/04 07:18:26;;;;;;;;;;;;;;;8.83;100.00;99275.84;7315448;19;19921;-67
2023/12/04 07:20:58;;;;;;;;;;;;;;;8.79;100.00;99279.81;7311301;19;19986;-68
2023/12/04 07:23:26;;;;;;;;;;;;;;;8.83;100.00;99269.78;7314607;19;20858;-65
2023/12/04 07:25:53;;;;;;;;;;;;;;;8.85;100.00;99271.22;7310664;19;19930;-66
2023/12/04 07:28:20;;;;;;;;;;;;;;;8.81;100.00;99269.97;7301607;19;20790;-66
2023/12/04 07:30:47;;;;;;;;;;;;;;;8.86;100.00;99277.28;7312553;19;19922;-66
2023/12/04 07:33:15;;;;;;;;;;;;;;;8.85;100.00;99271.22;7317047;19;19914;-66
2023/12/04 07:35:42;;;;;;;;;;;;;;;8.90;100.00;99271.50;7310685;19;19966;-65
2023/12/04 07:38:09;;;;;;;;;;;;;;;8.92;100.00;99274.78;7318284;19;19919;-67
2023/12/04 07:40:36;;;;;;;;;;;;;;;8.93;100.00;99270.34;7306008;19;21562;-65
2023/12/04 07:43:03;;;;;;;;;;;;;;;8.89;100.00;99279.53;7294383;19;19986;-66
2023/12/04 07:45:34;;;;;;;;;;;;;;;8.90;100.00;99270.69;7294730;19;19967;-66
2023/12/04 07:48:02;;;;;;;;;;;;;;;8.89;100.00;99264.63;7305931;19;21757;-65
2023/12/04 07:50:29;;;;;;;;;;;;;;;8.93;100.00;99265.91;7303083;19;19918;-67
2023/12/04 07:52:56;;;;;;;;;;;;;;;8.89;100.00;99262.00;7291686;19;20417;-67
2023/12/04 07:55:23;;;;;;;;;;;;;;;8.92;100.00;99261.66;7310327;19;21249;-67
2023/12/04 07:57:50;;;;;;;;;;;;;;;8.94;100.00;99264.88;7313146;19;20186;-66
2023/12/04 08:00:18;;;;;;;;;;;;;;;8.92;100.00;99264.28;7329098;19;20494;-66
2023/12/04 08:02:46;;;;;;;;;;;;;;;8.90;100.00;99265.44;7319526;19;20552;-66
2023/12/04 08:05:13;;;;;;;;;;;;;;;8.89;100.00;99262.00;7305356;19;20497;-67
2023/12/04 08:07:40;;;;;;;;;;;;;;;8.93;100.00;99255.41;7302780;19;19954;-67
2023/12/04 08:10:07;;;;;;;;;;;;;;;8.97;100.00;99256.69;7306158;19;19925;-66
2023/12/04 08:12:34;;;;;;;;;;;;;;;9.00;100.00;99258.09;7322825;19;19935;-66
2023/12/04 08:15:03;;;;;;;;;;;;;;;8.96;100.00;99251.59;7319220;19;21011;-66
2023/12/04 08:17:30;;;;;;;;;;;;;;;8.98;100.00;99253.06;7313393;19;20045;-67
2023/12/04 08:19:58;;;;;;;;;;;;;;;8.96;100.00;99244.56;7321512;19;19921;-68
2023/12/04 08:22:25;;;;;;;;;;;;;;;8.94;100.00;99243.91;7325805;19;19935;-69
2023/12/04 08:24:53;;;;;;;;;;;;;;;8.96;100.00;99249.78;7315467;19;19918;-65
2023/12/04 08:27:20;;;;;;;;;;;;;;;8.97;100.00;99234.88;7312468;19;19918;-67
2023/12/04 08:29:47;;;;;;;;;;;;;;;9.03;100.00;99234.16;7342124;19;19934;-66
2023/12/04 08:32:15;;;;;;;;;;;;;;;9.01;100.00;99238.75;7336025;19;19954;-65
2023/12/04 08:34:42;;;;;;;;;;;;;;;9.01;100.00;99244.00;7321362;19;19919;-66
2023/12/04 08:37:12;;;;;;;;;;;;;;;9.02;100.00;99246.47;7340825;19;19930;-65
2023/12/04 08:39:40;;;;;;;;;;;;;;;9.05;100.00;99231.31;7330564;19;20279;-67
2023/12/04 08:42:07;;;;;;;;;;;;;;;9.05;100.00;99240.00;7321563;19;19918;-66
2023/12/04 08:44:45;;;;;;;;;;;;;;;9.01;100.00;99234.31;7322741;19;19915;-67
2023/12/04 08:47:13;;;;;;;;;;;;;;;9.04;100.00;99238.38;7316921;19;20234;-66
2023/12/04 08:49:43;;;;;;;;;;;;;;;9.04;100.00;99234.97;7338998;19;20987;-65
2023/12/04 08:52:15;;;;;;;;;;;;;;;9.02;100.00;99233.34;7332840;19;19983;-66
2023/12/04 08:54:43;;;;;;;;;;;;;;;9.05;100.00;99239.19;7330568;19;19915;-67
2023/12/04 08:57:14;;;;;;;;;;;;;;;9.08;100.00;99238.84;7323839;19;20023;-67
2023/12/04 08:59:51;;;;;;;;;;;;;;;9.09;100.00;99230.00;7325441;19;19945;-66
2023/12/04 09:02:22;;;;;;;;;;;;;;;9.10;100.00;99231.59;7324235;19;19919;-65
2023/12/04 09:04:50;;;;;;;;;;;;;;;9.13;100.00;99226.00;7325883;19;19918;-66
2023/12/04 09:07:31;;;;;;;;;;;;;;;9.10;100.00;99229.78;7320713;19;19914;-67
2023/12/04 09:10:03;;;;;;;;;;;;;;;9.17;100.00;99229.88;7326080;19;19926;-66
2023/12/04 09:12:46;;;;;;;;;;;;;;;9.20;100.00;99232.13;7328241;19;20506;-67
2023/12/04 09:15:26;;;;;;;;;;;;;;;9.18;100.00;99228.88;7324304;19;20371;-65
2023/12/04 09:18:01;;;;;;;;;;;;;;;9.20;100.00;99226.88;7313760;19;19965;-67
2023/12/04 09:20:45;;;;;;;;;;;;;;;9.21;100.00;99221.44;7323772;19;19948;-67
2023/12/04 09:23:24;;;;;;;;;;;;;;;9.18;100.00;99221.84;7332556;19;19922;-65
2023/12/04 09:25:54;;;;;;;;;;;;;;;9.25;100.00;99221.88;7330520;19;19925;-66
2023/12/04 09:28:28;;;;;;;;;;;;;;;9.28;100.00;99221.53;7329490;19;19922;-66
2023/12/04 09:31:00;;;;;;;;;;;;;;;9.28;100.00;99222.34;7327383;19;20101;-66
2023/12/04 09:33:38;;;;;;;;;;;;;;;9.30;100.00;99219.53;7327623;19;19915;-66
2023/12/04 09:36:16;;;;;;;;;;;;;;;9.37;100.00;99228.28;7324600;19;19931;-67
2023/12/04 09:39:12;;;;;;;;;;;;;;;9.36;100.00;99232.72;7319695;19;19918;-67
2023/12/04 09:42:16;;;;;;;;;;;;;;;9.33;100.00;99227.88;7318978;19;19949;-66
2023/12/04 09:44:54;;;;;;;;;;;;;;;9.39;100.00;99228.94;7320198;19;19923;-66
2023/12/04 09:47:33;;;;;;;;;;;;;;;9.39;100.00;99231.56;7319456;19;20358;-66
2023/12/04 09:50:22;;;;;;;;;;;;;;;9.41;100.00;99226.94;7307617;19;21270;-66
2023/12/04 09:53:09;;;;;;;;;;;;;;;9.39;100.00;99219.25;7313556;19;20462;-65
2023/12/04 09:55:47;;;;;;;;;;;;;;;9.39;100.00;99227.13;7315305;19;21537;-67
2023/12/04 09:58:35;;;;;;;;;;;;;;;9.37;100.00;99229.13;7312945;19;19982;-65
2023/12/04 10:01:31;;;;;;;;;;;;;;;9.42;100.00;99229.38;7307570;19;19990;-68
2023/12/04 10:04:05;;;;;;;;;;;;;;;9.42;100.00;99237.25;7315174;19;19921;-65
2023/12/04 10:07:01;;;;;;;;;;;;;;;9.42;100.00;99233.81;7316013;19;19946;-66
2023/12/04 10:09:47;;;;;;;;;;;;;;;9.42;100.00;99224.13;7315306;19;20018;-66
2023/12/04 10:12:27;;;;;;;;;;;;;;;9.47;100.00;99230.63;7323458;19;19943;-66
2023/12/04 10:15:06;;;;;;;;;;;;;;;9.48;100.00;99233.06;7317330;19;20162;-65
2023/12/04 10:17:47;;;;;;;;;;;;;;;9.45;100.00;99215.88;7313471;19;19934;-65
2023/12/04 10:20:30;;;;;;;;;;;;;;;9.45;100.00;99215.06;7305639;19;19919;-66
2023/12/04 10:23:13;;;;;;;;;;;;;;;9.47;100.00;99222.75;7309160;19;20387;-67
2023/12/04 10:25:43;;;;;;;;;;;;;;;9.51;100.00;99216.13;7315174;19;20415;-66
2023/12/04 10:28:23;;;;;;;;;;;;;;;9.54;100.00;99221.03;7316627;19;19961;-67
2023/12/04 10:30:53;;;;;;;;;;;;;;;9.57;100.00;99212.75;7302201;19;20556;-66
2023/12/04 10:33:25;;;;;;;;;;;;;;;9.61;100.00;99206.94;7322439;19;19990;-65
2023/12/04 10:36:11;;;;;;;;;;;;;;;9.61;100.00;99204.31;7308652;19;20031;-67
2023/12/04 10:38:39;;;;;;;;;;;;;;;9.59;100.00;99208.97;7318942;19;19926;-66
2023/12/04 10:41:09;;;;;;;;;;;;;;;9.60;100.00;99200.06;7315859;19;19919;-67
2023/12/04 10:43:49;;;;;;;;;;;;;;;9.61;100.00;99201.69;7312159;19;19922;-68
2023/12/04 10:46:32;;;;;;;;;;;;;;;9.58;100.00;99204.69;7314773;19;19919;-65
2023/12/04 10:49:03;;;;;;;;;;;;;;;9.57;100.00;99195.19;7314745;19;19914;-66
2023/12/04 10:51:34;;;;;;;;;;;;;;;9.61;100.00;99185.13;7316277;19;19952;-65
2023/12/04 10:54:05;;;;;;;;;;;;;;;9.63;100.00;99191.00;7311544;19;19918;-68
2023/12/04 10:56:43;;;;;;;;;;;;;;;9.64;100.00;99187.41;7293641;19;20839;-67
2023/12/04 10:59:12;;;;;;;;;;;;;;;9.64;100.00;99187.41;7319164;19;19922;-66
2023/12/04 11:01:42;;;;;;;;;;;;;;;9.64;100.00;99188.22;7329429;19;19956;-66
2023/12/04 11:04:24;;;;;;;;;;;;;;;9.63;100.00;99183.13;7332338;19;19934;-67
2023/12/04 11:07:00;;;;;;;;;;;;;;;9.56;100.00;99174.38;7330689;19;20837;-66
2023/12/04 11:09:42;;;;;;;;;;;;;;;9.53;100.00;99172.94;7311147;19;19922;-66
2023/12/04 11:12:12;;;;;;;;;;;;;;;9.56;100.00;99180.44;7332566;19;20605;-66
2023/12/04 11:14:46;;;;;;;;;;;;;;;9.57;100.00;99176.00;7327494;19;20500;-67
2023/12/04 11:17:42;;;;;;;;;;;;;;;9.58;100.00;99175.00;7323751;19;19927;-68
2023/12/04 11:20:18;;;;;;;;;;;;;;;9.60;100.00;99176.44;7314883;19;20424;-67
2023/12/04 11:22:51;;;;;;;;;;;;;;;9.64;100.00;99171.63;7321178;19;19922;-66
2023/12/04 11:25:23;;;;;;;;;;;;;;;9.65;100.00;99175.91;7321067;19;20346;-66
2023/12/04 11:28:17;;;;;;;;;;;;;;;9.63;100.00;99164.75;7319554;19;19925;-67
2023/12/04 11:31:03;;;;;;;;;;;;;;;9.69;100.00;99171.88;7315280;19;20112;-66
2023/12/04 11:34:07;;;;;;;;;;;;;;;;;;;;;
2023/12/04 11:36:44;;;;;;;;;;;;;;;9.82;100.00;99161.47;7319643;19;21201;-66
2023/12/04 11:39:50;;;;;;;;;;;;;;;9.85;100.00;99140.91;7320873;19;19915;-67
2023/12/04 11:43:11;;;;;;;;;;;;;;;9.86;100.00;99147.78;7319047;19;19935;-66
2023/12/04 11:45:22;;;;;;;;;;;;;;;9.86;100.00;99139.91;7320054;19;19918;-66
2023/12/04 11:47:55;;;;;;;;;;;;;;;9.86;100.00;99139.91;7325285;19;20190;-67
2023/12/04 11:50:26;;;;;;;;;;;;;;;9.85;100.00;99140.91;7319806;19;20002;-66
2023/12/04 11:52:54;;;;;;;;;;;;;;;9.88;100.00;99132.66;7315366;19;19923;-68
2023/12/04 11:55:26;;;;;;;;;;;;;;;9.89;100.00;99133.47;7309394;19;19934;-66
2023/12/04 11:58:13;;;;;;;;;;;;;;;9.97;100.00;99129.88;7307436;19;20308;-67
2023/12/04 12:00:42;;;;;;;;;;;;;;;10.00;100.00;99129.50;7317388;19;20345;-67
2023/12/04 12:03:37;;;;;;;;;;;;;;;9.99;100.00;99128.69;7316728;19;19915;-66
2023/12/04 12:06:10;;;;;;;;;;;;;;;10.08;100.00;99132.78;7319024;19;19923;-66
2023/12/04 12:08:43;;;;;;;;;;;;;;;10.08;100.00;99126.72;7312330;19;19983;-66
2023/12/04 12:11:17;;;;;;;;;;;;;;;10.06;100.00;99128.72;7310165;19;20812;-67
2023/12/04 12:13:59;;;;;;;;;;;;;;;10.07;100.00;99125.91;7311734;19;20577;-65
2023/12/04 12:16:27;;;;;;;;;;;;;;;10.09;100.00;99134.44;7307087;19;20273;-66
2023/12/04 12:18:56;;;;;;;;;;;;;;;10.04;100.00;99128.13;7315321;19;19923;-66
2023/12/04 12:21:30;;;;;;;;;;;;;;;10.04;100.00;99130.75;7312511;19;19923;-66
2023/12/04 12:23:58;;;;;;;;;;;;;;;10.05;100.00;99132.38;7314435;19;19922;-65
2023/12/04 12:26:49;;;;;;;;;;;;;;;9.99;100.00;99123.44;7298611;19;19923;-65
2023/12/04 12:29:17;;;;;;;;;;;;;;;9.99;100.00;99120.81;7290218;19;20516;-66
2023/12/04 12:31:46;;;;;;;;;;;;;;;10.00;100.00;99121.63;7313310;19;19922;-66
2023/12/04 12:34:18;;;;;;;;;;;;;;;9.99;100.00;99122.63;7307846;19;19915;-66
2023/12/04 12:36:53;;;;;;;;;;;;;;;9.95;100.00;99122.22;7310717;19;20591;-66
2023/12/04 12:39:30;;;;;;;;;;;;;;;9.89;100.00;99125.59;7314453;19;20187;-66
2023/12/04 12:42:05;;;;;;;;;;;;;;;9.92;100.00;99124.38;7317611;19;19925;-66
2023/12/04 12:45:03;;;;;;;;;;;;;;;9.87;100.00;99122.34;7308592;19;19918;-66
2023/12/04 12:47:42;;;;;;;;;;;;;;;9.87;100.00;99117.88;7313718;19;20266;-66
2023/12/04 12:50:13;;;;;;;;;;;;;;;9.86;100.00;99108.38;7312450;19;19919;-67
2023/12/04 12:52:48;;;;;;;;;;;;;;;9.85;100.00;99113.84;7310560;19;20141;-67
2023/12/04 12:55:38;;;;;;;;;;;;;;;9.87;100.00;99109.19;7315568;19;20673;-67
2023/12/04 12:58:06;;;;;;;;;;;;;;;9.86;100.00;99102.31;7308592;19;19943;-67
2023/12/04 13:00:43;;;;;;;;;;;;;;;9.87;100.00;99101.31;7316483;19;20580;-66
2023/12/04 13:03:16;;;;;;;;;;;;;;;9.89;100.00;99099.31;7314561;19;19918;-67
2023/12/04 13:05:57;;;;;;;;;;;;;;;9.87;100.00;99103.94;7311946;19;20457;-66
2023/12/04 13:08:30;;;;;;;;;;;;;;;9.85;100.00;99098.88;7305432;19;19922;-66
2023/12/04 13:10:59;;;;;;;;;;;;;;;9.90;100.00;99094.88;7307491;19;19923;-66
2023/12/04 13:13:35;;;;;;;;;;;;;;;9.92;100.00;99096.31;7311433;19;20383;-67